sensor_id;sensor_type;location;lat;lon;timestamp;P1;durP1;ratioP1;P2;durP2;ratioP2
6406;SDS011;3236;51.022;6.818;2022-10-16T00:01:05;3.97;;;2.90;;
6406;SDS011;3236;51.022;6.818;2022-10-16T00:03:33;4.68;;;2.83;;
6406;SDS011;3236;51.022;6.818;2022-10-16T00:06:00;3.65;;;2.58;;
6406;SDS011;3236;51.022;6.818;2022-10-16T00:08:27;4.15;;;2.70;;
6406;SDS011;3236;51.022;6.818;2022-10-16T00:10:58;5.13;;;2.42;;
6406;SDS011;3236;51.022;6.818;2022-10-16T00:13:26;3.17;;;2.40;;
6406;SDS011;3236;51.022;6.818;2022-10-16T00:15:54;5.82;;;2.85;;
6406;SDS011;3236;51.022;6.818;2022-10-16T00:18:23;3.42;;;2.50;;
6406;SDS011;3236;51.022;6.818;2022-10-16T00:20:51;2.22;;;2.00;;
6406;SDS011;3236;51.022;6.818;2022-10-16T00:23:18;3.97;;;1.90;;
6406;SDS011;3236;51.022;6.818;2022-10-16T00:25:53;2.53;;;2.33;;
6406;SDS011;3236;51.022;6.818;2022-10-16T00:28:22;2.15;;;1.95;;
6406;SDS011;3236;51.022;6.818;2022-10-16T00:30:50;4.20;;;2.13;;
6406;SDS011;3236;51.022;6.818;2022-10-16T00:33:17;2.33;;;2.10;;
6406;SDS011;3236;51.022;6.818;2022-10-16T00:35:45;4.50;;;2.10;;
6406;SDS011;3236;51.022;6.818;2022-10-16T00:38:12;3.55;;;2.20;;
6406;SDS011;3236;51.022;6.818;2022-10-16T00:40:39;2.75;;;2.30;;
6406;SDS011;3236;51.022;6.818;2022-10-16T00:43:09;4.82;;;2.58;;
6406;SDS011;3236;51.022;6.818;2022-10-16T00:45:40;4.13;;;2.05;;
6406;SDS011;3236;51.022;6.818;2022-10-16T00:48:07;4.53;;;2.50;;
6406;SDS011;3236;51.022;6.818;2022-10-16T00:50:38;2.40;;;2.20;;
6406;SDS011;3236;51.022;6.818;2022-10-16T00:53:09;3.80;;;2.50;;
6406;SDS011;3236;51.022;6.818;2022-10-16T00:55:38;2.33;;;2.13;;
6406;SDS011;3236;51.022;6.818;2022-10-16T00:58:05;6.60;;;2.65;;
6406;SDS011;3236;51.022;6.818;2022-10-16T01:00:32;4.75;;;2.80;;
6406;SDS011;3236;51.022;6.818;2022-10-16T01:03:00;3.47;;;2.55;;
6406;SDS011;3236;51.022;6.818;2022-10-16T01:05:30;2.67;;;2.47;;
6406;SDS011;3236;51.022;6.818;2022-10-16T01:08:18;5.95;;;2.60;;
6406;SDS011;3236;51.022;6.818;2022-10-16T01:10:52;5.97;;;2.50;;
6406;SDS011;3236;51.022;6.818;2022-10-16T01:13:24;3.88;;;2.08;;
6406;SDS011;3236;51.022;6.818;2022-10-16T01:15:59;3.15;;;2.40;;
6406;SDS011;3236;51.022;6.818;2022-10-16T01:18:31;6.47;;;2.50;;
6406;SDS011;3236;51.022;6.818;2022-10-16T01:21:04;2.45;;;2.20;;
6406;SDS011;3236;51.022;6.818;2022-10-16T01:23:38;2.88;;;2.33;;
6406;SDS011;3236;51.022;6.818;2022-10-16T01:26:20;1.70;;;1.60;;
6406;SDS011;3236;51.022;6.818;2022-10-16T01:29:00;3.05;;;2.40;;
6406;SDS011;3236;51.022;6.818;2022-10-16T01:31:33;2.85;;;2.13;;
6406;SDS011;3236;51.022;6.818;2022-10-16T01:34:05;4.47;;;2.33;;
6406;SDS011;3236;51.022;6.818;2022-10-16T01:36:37;3.25;;;2.50;;
6406;SDS011;3236;51.022;6.818;2022-10-16T01:39:08;5.13;;;2.13;;
6406;SDS011;3236;51.022;6.818;2022-10-16T01:41:38;3.20;;;2.13;;
6406;SDS011;3236;51.022;6.818;2022-10-16T01:44:10;4.82;;;2.33;;
6406;SDS011;3236;51.022;6.818;2022-10-16T01:46:44;3.25;;;2.40;;
6406;SDS011;3236;51.022;6.818;2022-10-16T01:49:13;4.65;;;2.08;;
6406;SDS011;3236;51.022;6.818;2022-10-16T01:51:45;4.60;;;2.47;;
6406;SDS011;3236;51.022;6.818;2022-10-16T01:54:16;3.80;;;2.20;;
6406;SDS011;3236;51.022;6.818;2022-10-16T01:56:45;7.32;;;3.17;;
6406;SDS011;3236;51.022;6.818;2022-10-16T01:59:15;8.77;;;2.65;;
6406;SDS011;3236;51.022;6.818;2022-10-16T02:01:45;3.10;;;2.33;;
6406;SDS011;3236;51.022;6.818;2022-10-16T02:04:17;4.05;;;2.95;;
6406;SDS011;3236;51.022;6.818;2022-10-16T02:06:47;7.20;;;2.90;;
6406;SDS011;3236;51.022;6.818;2022-10-16T02:09:14;3.00;;;2.47;;
6406;SDS011;3236;51.022;6.818;2022-10-16T02:11:42;6.15;;;2.40;;
6406;SDS011;3236;51.022;6.818;2022-10-16T02:14:09;3.25;;;2.65;;
6406;SDS011;3236;51.022;6.818;2022-10-16T02:16:39;6.63;;;2.47;;
6406;SDS011;3236;51.022;6.818;2022-10-16T02:19:08;3.95;;;2.30;;
6406;SDS011;3236;51.022;6.818;2022-10-16T02:21:36;2.97;;;2.60;;
6406;SDS011;3236;51.022;6.818;2022-10-16T02:24:11;3.60;;;2.53;;
6406;SDS011;3236;51.022;6.818;2022-10-16T02:26:49;3.65;;;2.50;;
6406;SDS011;3236;51.022;6.818;2022-10-16T02:29:23;4.60;;;2.75;;
6406;SDS011;3236;51.022;6.818;2022-10-16T02:31:55;4.95;;;2.67;;
6406;SDS011;3236;51.022;6.818;2022-10-16T02:34:27;3.08;;;2.53;;
6406;SDS011;3236;51.022;6.818;2022-10-16T02:36:56;7.35;;;2.50;;
6406;SDS011;3236;51.022;6.818;2022-10-16T02:39:24;2.63;;;2.42;;
6406;SDS011;3236;51.022;6.818;2022-10-16T02:41:53;4.13;;;2.80;;
6406;SDS011;3236;51.022;6.818;2022-10-16T02:44:20;4.22;;;2.60;;
6406;SDS011;3236;51.022;6.818;2022-10-16T02:46:47;3.58;;;2.47;;
6406;SDS011;3236;51.022;6.818;2022-10-16T02:49:15;2.95;;;2.50;;
6406;SDS011;3236;51.022;6.818;2022-10-16T02:51:43;2.88;;;2.58;;
6406;SDS011;3236;51.022;6.818;2022-10-16T02:54:10;5.85;;;2.47;;
6406;SDS011;3236;51.022;6.818;2022-10-16T02:56:38;3.70;;;2.55;;
6406;SDS011;3236;51.022;6.818;2022-10-16T02:59:05;4.30;;;2.40;;
6406;SDS011;3236;51.022;6.818;2022-10-16T03:01:32;5.55;;;2.60;;
6406;SDS011;3236;51.022;6.818;2022-10-16T03:03:59;3.20;;;2.20;;
6406;SDS011;3236;51.022;6.818;2022-10-16T03:06:27;3.08;;;2.53;;
6406;SDS011;3236;51.022;6.818;2022-10-16T03:08:54;2.85;;;2.65;;
6406;SDS011;3236;51.022;6.818;2022-10-16T03:11:21;3.13;;;2.53;;
6406;SDS011;3236;51.022;6.818;2022-10-16T03:13:48;3.55;;;2.30;;
6406;SDS011;3236;51.022;6.818;2022-10-16T03:16:15;2.70;;;1.88;;
6406;SDS011;3236;51.022;6.818;2022-10-16T03:18:42;1.70;;;1.60;;
6406;SDS011;3236;51.022;6.818;2022-10-16T03:21:09;1.85;;;1.50;;
6406;SDS011;3236;51.022;6.818;2022-10-16T03:23:37;4.55;;;1.90;;
6406;SDS011;3236;51.022;6.818;2022-10-16T03:26:04;1.67;;;1.52;;
6406;SDS011;3236;51.022;6.818;2022-10-16T03:28:31;6.88;;;1.80;;
6406;SDS011;3236;51.022;6.818;2022-10-16T03:30:58;4.80;;;1.50;;
6406;SDS011;3236;51.022;6.818;2022-10-16T03:33:25;3.22;;;1.83;;
6406;SDS011;3236;51.022;6.818;2022-10-16T03:35:52;2.65;;;1.38;;
6406;SDS011;3236;51.022;6.818;2022-10-16T03:38:20;1.58;;;1.48;;
6406;SDS011;3236;51.022;6.818;2022-10-16T03:40:49;1.55;;;1.45;;
6406;SDS011;3236;51.022;6.818;2022-10-16T03:43:16;2.90;;;1.58;;
6406;SDS011;3236;51.022;6.818;2022-10-16T03:45:43;2.83;;;1.50;;
6406;SDS011;3236;51.022;6.818;2022-10-16T03:48:10;2.10;;;1.35;;
6406;SDS011;3236;51.022;6.818;2022-10-16T03:50:37;1.98;;;1.60;;
6406;SDS011;3236;51.022;6.818;2022-10-16T03:53:03;2.53;;;1.40;;
6406;SDS011;3236;51.022;6.818;2022-10-16T03:55:30;2.78;;;1.08;;
6406;SDS011;3236;51.022;6.818;2022-10-16T03:57:59;1.30;;;1.20;;
6406;SDS011;3236;51.022;6.818;2022-10-16T04:00:32;1.73;;;1.45;;
6406;SDS011;3236;51.022;6.818;2022-10-16T04:03:00;1.40;;;1.30;;
6406;SDS011;3236;51.022;6.818;2022-10-16T04:05:27;2.55;;;1.42;;
6406;SDS011;3236;51.022;6.818;2022-10-16T04:07:56;1.05;;;0.98;;
6406;SDS011;3236;51.022;6.818;2022-10-16T04:10:23;2.47;;;1.45;;
6406;SDS011;3236;51.022;6.818;2022-10-16T04:12:50;2.38;;;1.30;;
6406;SDS011;3236;51.022;6.818;2022-10-16T04:15:21;1.77;;;1.40;;
6406;SDS011;3236;51.022;6.818;2022-10-16T04:17:48;1.35;;;1.08;;
6406;SDS011;3236;51.022;6.818;2022-10-16T04:20:15;1.27;;;1.20;;
6406;SDS011;3236;51.022;6.818;2022-10-16T04:22:42;2.72;;;1.30;;
6406;SDS011;3236;51.022;6.818;2022-10-16T04:25:09;1.55;;;1.45;;
6406;SDS011;3236;51.022;6.818;2022-10-16T04:27:37;2.13;;;0.95;;
6406;SDS011;3236;51.022;6.818;2022-10-16T04:30:05;2.08;;;1.27;;
6406;SDS011;3236;51.022;6.818;2022-10-16T04:32:34;3.17;;;1.08;;
6406;SDS011;3236;51.022;6.818;2022-10-16T04:35:01;1.83;;;1.20;;
6406;SDS011;3236;51.022;6.818;2022-10-16T04:37:28;3.20;;;1.17;;
6406;SDS011;3236;51.022;6.818;2022-10-16T04:39:55;5.35;;;1.40;;
6406;SDS011;3236;51.022;6.818;2022-10-16T04:42:22;1.33;;;1.20;;
6406;SDS011;3236;51.022;6.818;2022-10-16T04:44:49;3.65;;;1.10;;
6406;SDS011;3236;51.022;6.818;2022-10-16T04:47:16;3.40;;;1.30;;
6406;SDS011;3236;51.022;6.818;2022-10-16T04:49:44;1.60;;;1.30;;
6406;SDS011;3236;51.022;6.818;2022-10-16T04:52:11;2.53;;;1.33;;
6406;SDS011;3236;51.022;6.818;2022-10-16T04:54:38;3.55;;;1.25;;
6406;SDS011;3236;51.022;6.818;2022-10-16T04:57:05;2.20;;;1.10;;
6406;SDS011;3236;51.022;6.818;2022-10-16T04:59:32;1.92;;;1.38;;
6406;SDS011;3236;51.022;6.818;2022-10-16T05:01:59;1.42;;;1.17;;
6406;SDS011;3236;51.022;6.818;2022-10-16T05:04:26;1.20;;;1.10;;
6406;SDS011;3236;51.022;6.818;2022-10-16T05:06:55;1.63;;;1.50;;
6406;SDS011;3236;51.022;6.818;2022-10-16T05:09:22;2.38;;;1.30;;
6406;SDS011;3236;51.022;6.818;2022-10-16T05:11:49;2.22;;;1.40;;
6406;SDS011;3236;51.022;6.818;2022-10-16T05:14:16;2.88;;;1.45;;
6406;SDS011;3236;51.022;6.818;2022-10-16T05:16:43;3.35;;;1.50;;
6406;SDS011;3236;51.022;6.818;2022-10-16T05:19:10;4.97;;;2.00;;
6406;SDS011;3236;51.022;6.818;2022-10-16T05:21:37;2.53;;;1.50;;
6406;SDS011;3236;51.022;6.818;2022-10-16T05:24:06;2.08;;;1.80;;
6406;SDS011;3236;51.022;6.818;2022-10-16T05:26:34;3.60;;;2.00;;
6406;SDS011;3236;51.022;6.818;2022-10-16T05:29:01;2.42;;;1.95;;
6406;SDS011;3236;51.022;6.818;2022-10-16T05:31:28;1.63;;;1.52;;
6406;SDS011;3236;51.022;6.818;2022-10-16T05:33:57;2.33;;;1.90;;
6406;SDS011;3236;51.022;6.818;2022-10-16T05:36:25;3.08;;;1.70;;
6406;SDS011;3236;51.022;6.818;2022-10-16T05:38:52;1.85;;;1.70;;
6406;SDS011;3236;51.022;6.818;2022-10-16T05:41:21;1.73;;;1.60;;
6406;SDS011;3236;51.022;6.818;2022-10-16T05:43:50;4.15;;;1.70;;
6406;SDS011;3236;51.022;6.818;2022-10-16T05:46:17;1.48;;;1.38;;
6406;SDS011;3236;51.022;6.818;2022-10-16T05:48:44;4.72;;;2.15;;
6406;SDS011;3236;51.022;6.818;2022-10-16T05:51:12;2.13;;;1.60;;
6406;SDS011;3236;51.022;6.818;2022-10-16T05:53:40;3.15;;;1.83;;
6406;SDS011;3236;51.022;6.818;2022-10-16T05:56:09;4.95;;;1.90;;
6406;SDS011;3236;51.022;6.818;2022-10-16T05:58:38;3.03;;;2.10;;
6406;SDS011;3236;51.022;6.818;2022-10-16T06:01:07;7.10;;;2.08;;
6406;SDS011;3236;51.022;6.818;2022-10-16T06:03:36;3.25;;;2.00;;
6406;SDS011;3236;51.022;6.818;2022-10-16T06:06:09;3.70;;;2.08;;
6406;SDS011;3236;51.022;6.818;2022-10-16T06:08:37;2.30;;;2.00;;
6406;SDS011;3236;51.022;6.818;2022-10-16T06:11:05;3.92;;;2.17;;
6406;SDS011;3236;51.022;6.818;2022-10-16T06:13:33;5.57;;;2.30;;
6406;SDS011;3236;51.022;6.818;2022-10-16T06:16:02;3.67;;;2.42;;
6406;SDS011;3236;51.022;6.818;2022-10-16T06:18:30;3.55;;;2.50;;
6406;SDS011;3236;51.022;6.818;2022-10-16T06:20:57;3.30;;;2.53;;
6406;SDS011;3236;51.022;6.818;2022-10-16T06:23:24;4.03;;;3.05;;
6406;SDS011;3236;51.022;6.818;2022-10-16T06:25:51;2.78;;;2.58;;
6406;SDS011;3236;51.022;6.818;2022-10-16T06:28:18;4.32;;;2.70;;
6406;SDS011;3236;51.022;6.818;2022-10-16T06:30:46;7.15;;;2.65;;
6406;SDS011;3236;51.022;6.818;2022-10-16T06:33:14;5.32;;;2.20;;
6406;SDS011;3236;51.022;6.818;2022-10-16T06:35:41;3.63;;;2.60;;
6406;SDS011;3236;51.022;6.818;2022-10-16T06:38:08;4.20;;;2.85;;
6406;SDS011;3236;51.022;6.818;2022-10-16T06:40:35;3.38;;;2.80;;
6406;SDS011;3236;51.022;6.818;2022-10-16T06:43:02;3.67;;;2.80;;
6406;SDS011;3236;51.022;6.818;2022-10-16T06:45:28;4.50;;;2.72;;
6406;SDS011;3236;51.022;6.818;2022-10-16T06:47:55;4.05;;;2.92;;
6406;SDS011;3236;51.022;6.818;2022-10-16T06:50:24;3.63;;;2.90;;
6406;SDS011;3236;51.022;6.818;2022-10-16T06:52:51;3.50;;;3.10;;
6406;SDS011;3236;51.022;6.818;2022-10-16T06:55:18;7.95;;;3.25;;
6406;SDS011;3236;51.022;6.818;2022-10-16T06:57:46;4.35;;;3.45;;
6406;SDS011;3236;51.022;6.818;2022-10-16T07:00:14;4.60;;;3.70;;
6406;SDS011;3236;51.022;6.818;2022-10-16T07:02:41;5.13;;;2.92;;
6406;SDS011;3236;51.022;6.818;2022-10-16T07:05:08;7.38;;;3.80;;
6406;SDS011;3236;51.022;6.818;2022-10-16T07:07:36;3.85;;;3.38;;
6406;SDS011;3236;51.022;6.818;2022-10-16T07:10:03;6.07;;;3.13;;
6406;SDS011;3236;51.022;6.818;2022-10-16T07:12:31;4.95;;;3.20;;
6406;SDS011;3236;51.022;6.818;2022-10-16T07:14:57;7.80;;;3.05;;
6406;SDS011;3236;51.022;6.818;2022-10-16T07:17:24;6.72;;;3.13;;
6406;SDS011;3236;51.022;6.818;2022-10-16T07:19:51;3.63;;;3.10;;
6406;SDS011;3236;51.022;6.818;2022-10-16T07:22:20;5.50;;;2.90;;
6406;SDS011;3236;51.022;6.818;2022-10-16T07:24:48;3.92;;;3.35;;
6406;SDS011;3236;51.022;6.818;2022-10-16T07:27:16;3.72;;;3.33;;
6406;SDS011;3236;51.022;6.818;2022-10-16T07:29:43;5.93;;;2.72;;
6406;SDS011;3236;51.022;6.818;2022-10-16T07:32:10;3.13;;;2.55;;
6406;SDS011;3236;51.022;6.818;2022-10-16T07:34:37;4.25;;;2.80;;
6406;SDS011;3236;51.022;6.818;2022-10-16T07:37:04;5.22;;;2.30;;
6406;SDS011;3236;51.022;6.818;2022-10-16T07:39:31;2.42;;;2.22;;
6406;SDS011;3236;51.022;6.818;2022-10-16T07:42:00;5.05;;;2.70;;
6406;SDS011;3236;51.022;6.818;2022-10-16T07:44:27;2.55;;;2.03;;
6406;SDS011;3236;51.022;6.818;2022-10-16T07:46:54;5.70;;;2.50;;
6406;SDS011;3236;51.022;6.818;2022-10-16T07:49:20;3.47;;;2.40;;
6406;SDS011;3236;51.022;6.818;2022-10-16T07:51:47;4.15;;;2.35;;
6406;SDS011;3236;51.022;6.818;2022-10-16T07:54:14;2.10;;;1.90;;
6406;SDS011;3236;51.022;6.818;2022-10-16T07:56:41;3.10;;;1.67;;
6406;SDS011;3236;51.022;6.818;2022-10-16T07:59:09;1.90;;;1.63;;
6406;SDS011;3236;51.022;6.818;2022-10-16T08:01:36;3.33;;;1.42;;
6406;SDS011;3236;51.022;6.818;2022-10-16T08:04:04;3.53;;;1.67;;
6406;SDS011;3236;51.022;6.818;2022-10-16T08:06:34;1.67;;;1.27;;
6406;SDS011;3236;51.022;6.818;2022-10-16T08:09:02;2.05;;;1.52;;
6406;SDS011;3236;51.022;6.818;2022-10-16T08:11:29;4.57;;;1.90;;
6406;SDS011;3236;51.022;6.818;2022-10-16T08:13:56;3.70;;;1.50;;
6406;SDS011;3236;51.022;6.818;2022-10-16T08:16:25;3.55;;;1.25;;
6406;SDS011;3236;51.022;6.818;2022-10-16T08:18:52;3.13;;;1.60;;
6406;SDS011;3236;51.022;6.818;2022-10-16T08:21:20;1.63;;;1.30;;
6406;SDS011;3236;51.022;6.818;2022-10-16T08:23:48;0.95;;;0.90;;
6406;SDS011;3236;51.022;6.818;2022-10-16T08:26:16;2.13;;;1.40;;
6406;SDS011;3236;51.022;6.818;2022-10-16T08:28:44;1.65;;;1.23;;
6406;SDS011;3236;51.022;6.818;2022-10-16T08:31:12;1.35;;;1.10;;
6406;SDS011;3236;51.022;6.818;2022-10-16T08:33:43;1.63;;;1.20;;
6406;SDS011;3236;51.022;6.818;2022-10-16T08:36:11;0.80;;;0.80;;
6406;SDS011;3236;51.022;6.818;2022-10-16T08:38:39;2.40;;;1.13;;
6406;SDS011;3236;51.022;6.818;2022-10-16T08:41:18;1.13;;;1.02;;
6406;SDS011;3236;51.022;6.818;2022-10-16T08:44:09;3.15;;;1.17;;
6406;SDS011;3236;51.022;6.818;2022-10-16T08:46:58;1.35;;;0.85;;
6406;SDS011;3236;51.022;6.818;2022-10-16T08:49:32;0.80;;;0.80;;
6406;SDS011;3236;51.022;6.818;2022-10-16T08:51:59;1.17;;;0.80;;
6406;SDS011;3236;51.022;6.818;2022-10-16T08:54:28;2.47;;;0.73;;
6406;SDS011;3236;51.022;6.818;2022-10-16T08:57:00;1.83;;;1.20;;
6406;SDS011;3236;51.022;6.818;2022-10-16T08:59:35;0.82;;;0.50;;
6406;SDS011;3236;51.022;6.818;2022-10-16T09:02:02;4.65;;;1.25;;
6406;SDS011;3236;51.022;6.818;2022-10-16T09:04:50;0.70;;;0.70;;
6406;SDS011;3236;51.022;6.818;2022-10-16T09:07:45;1.50;;;0.70;;
6406;SDS011;3236;51.022;6.818;2022-10-16T09:10:23;3.47;;;1.00;;
6406;SDS011;3236;51.022;6.818;2022-10-16T09:13:02;3.60;;;1.08;;
6406;SDS011;3236;51.022;6.818;2022-10-16T09:15:42;3.78;;;0.95;;
6406;SDS011;3236;51.022;6.818;2022-10-16T09:18:15;2.38;;;0.77;;
6406;SDS011;3236;51.022;6.818;2022-10-16T09:20:51;4.13;;;0.90;;
6406;SDS011;3236;51.022;6.818;2022-10-16T09:23:32;2.33;;;0.85;;
6406;SDS011;3236;51.022;6.818;2022-10-16T09:26:03;3.78;;;0.85;;
6406;SDS011;3236;51.022;6.818;2022-10-16T09:28:34;1.75;;;0.60;;
6406;SDS011;3236;51.022;6.818;2022-10-16T09:31:00;2.75;;;0.95;;
6406;SDS011;3236;51.022;6.818;2022-10-16T09:33:28;2.45;;;0.80;;
6406;SDS011;3236;51.022;6.818;2022-10-16T09:36:04;2.10;;;0.73;;
6406;SDS011;3236;51.022;6.818;2022-10-16T09:38:32;3.85;;;0.80;;
6406;SDS011;3236;51.022;6.818;2022-10-16T09:41:02;3.38;;;0.80;;
6406;SDS011;3236;51.022;6.818;2022-10-16T09:43:39;2.42;;;1.35;;
6406;SDS011;3236;51.022;6.818;2022-10-16T09:46:08;1.65;;;0.90;;
6406;SDS011;3236;51.022;6.818;2022-10-16T09:48:49;1.27;;;0.73;;
6406;SDS011;3236;51.022;6.818;2022-10-16T09:51:20;0.65;;;0.60;;
6406;SDS011;3236;51.022;6.818;2022-10-16T09:53:53;1.73;;;0.80;;
6406;SDS011;3236;51.022;6.818;2022-10-16T09:56:22;3.08;;;0.63;;
6406;SDS011;3236;51.022;6.818;2022-10-16T09:58:51;0.95;;;0.85;;
6406;SDS011;3236;51.022;6.818;2022-10-16T10:01:19;3.13;;;0.60;;
6406;SDS011;3236;51.022;6.818;2022-10-16T10:03:48;2.97;;;0.73;;
6406;SDS011;3236;51.022;6.818;2022-10-16T10:06:20;5.22;;;0.80;;
6406;SDS011;3236;51.022;6.818;2022-10-16T10:08:56;1.05;;;0.90;;
6406;SDS011;3236;51.022;6.818;2022-10-16T10:11:48;0.47;;;0.47;;
6406;SDS011;3236;51.022;6.818;2022-10-16T10:14:23;2.17;;;0.60;;
6406;SDS011;3236;51.022;6.818;2022-10-16T10:17:01;1.75;;;0.80;;
6406;SDS011;3236;51.022;6.818;2022-10-16T10:19:39;1.13;;;0.80;;
6406;SDS011;3236;51.022;6.818;2022-10-16T10:22:29;2.58;;;1.20;;
6406;SDS011;3236;51.022;6.818;2022-10-16T10:25:07;2.72;;;0.75;;
6406;SDS011;3236;51.022;6.818;2022-10-16T10:27:45;3.30;;;0.65;;
6406;SDS011;3236;51.022;6.818;2022-10-16T10:30:19;2.60;;;0.77;;
6406;SDS011;3236;51.022;6.818;2022-10-16T10:32:52;3.50;;;0.82;;
6406;SDS011;3236;51.022;6.818;2022-10-16T10:35:39;0.85;;;0.60;;
6406;SDS011;3236;51.022;6.818;2022-10-16T10:38:19;0.80;;;0.80;;
6406;SDS011;3236;51.022;6.818;2022-10-16T10:40:52;1.35;;;0.73;;
6406;SDS011;3236;51.022;6.818;2022-10-16T10:43:30;2.78;;;0.60;;
6406;SDS011;3236;51.022;6.818;2022-10-16T10:46:09;3.80;;;0.77;;
6406;SDS011;3236;51.022;6.818;2022-10-16T10:48:48;3.85;;;0.73;;
6406;SDS011;3236;51.022;6.818;2022-10-16T10:51:25;0.95;;;0.50;;
6406;SDS011;3236;51.022;6.818;2022-10-16T10:54:06;3.60;;;0.82;;
6406;SDS011;3236;51.022;6.818;2022-10-16T10:56:44;4.03;;;0.75;;
6406;SDS011;3236;51.022;6.818;2022-10-16T11:02:26;1.88;;;0.98;;
6406;SDS011;3236;51.022;6.818;2022-10-16T11:05:15;8.60;;;1.10;;
6406;SDS011;3236;51.022;6.818;2022-10-16T11:07:55;3.47;;;0.77;;
6406;SDS011;3236;51.022;6.818;2022-10-16T11:10:28;3.53;;;0.70;;
6406;SDS011;3236;51.022;6.818;2022-10-16T11:13:09;1.15;;;0.60;;
6406;SDS011;3236;51.022;6.818;2022-10-16T11:15:43;1.15;;;0.60;;
6406;SDS011;3236;51.022;6.818;2022-10-16T11:18:16;3.90;;;0.70;;
6406;SDS011;3236;51.022;6.818;2022-10-16T11:20:47;1.23;;;0.60;;
6406;SDS011;3236;51.022;6.818;2022-10-16T11:23:18;2.92;;;0.60;;
6406;SDS011;3236;51.022;6.818;2022-10-16T11:25:51;3.97;;;0.68;;
6406;SDS011;3236;51.022;6.818;2022-10-16T11:28:23;1.90;;;0.80;;
6406;SDS011;3236;51.022;6.818;2022-10-16T11:30:54;3.67;;;0.88;;
6406;SDS011;3236;51.022;6.818;2022-10-16T11:33:27;3.30;;;1.00;;
6406;SDS011;3236;51.022;6.818;2022-10-16T11:36:00;1.50;;;0.73;;
6406;SDS011;3236;51.022;6.818;2022-10-16T11:38:38;5.93;;;0.90;;
6406;SDS011;3236;51.022;6.818;2022-10-16T11:41:12;0.60;;;0.50;;
6406;SDS011;3236;51.022;6.818;2022-10-16T11:43:49;2.75;;;0.73;;
6406;SDS011;3236;51.022;6.818;2022-10-16T11:46:22;2.50;;;0.73;;
6406;SDS011;3236;51.022;6.818;2022-10-16T11:48:52;4.68;;;0.75;;
6406;SDS011;3236;51.022;6.818;2022-10-16T11:51:26;3.10;;;0.70;;
6406;SDS011;3236;51.022;6.818;2022-10-16T11:54:04;4.20;;;1.10;;
6406;SDS011;3236;51.022;6.818;2022-10-16T11:56:43;2.72;;;0.73;;
6406;SDS011;3236;51.022;6.818;2022-10-16T12:01:43;4.25;;;0.73;;
6406;SDS011;3236;51.022;6.818;2022-10-16T12:04:19;3.00;;;0.80;;
6406;SDS011;3236;51.022;6.818;2022-10-16T12:06:54;2.47;;;0.80;;
6406;SDS011;3236;51.022;6.818;2022-10-16T12:09:25;2.08;;;0.88;;
6406;SDS011;3236;51.022;6.818;2022-10-16T12:11:56;2.83;;;0.60;;
6406;SDS011;3236;51.022;6.818;2022-10-16T12:14:34;1.92;;;0.70;;
6406;SDS011;3236;51.022;6.818;2022-10-16T12:17:04;2.25;;;0.70;;
6406;SDS011;3236;51.022;6.818;2022-10-16T12:19:56;3.22;;;0.90;;
6406;SDS011;3236;51.022;6.818;2022-10-16T12:22:24;1.25;;;0.60;;
6406;SDS011;3236;51.022;6.818;2022-10-16T12:24:55;4.47;;;0.80;;
6406;SDS011;3236;51.022;6.818;2022-10-16T12:27:25;1.75;;;0.85;;
6406;SDS011;3236;51.022;6.818;2022-10-16T12:29:55;3.53;;;0.80;;
6406;SDS011;3236;51.022;6.818;2022-10-16T12:32:28;2.42;;;1.58;;
6406;SDS011;3236;51.022;6.818;2022-10-16T12:34:57;3.28;;;0.90;;
6406;SDS011;3236;51.022;6.818;2022-10-16T12:37:27;4.60;;;0.80;;
6406;SDS011;3236;51.022;6.818;2022-10-16T12:39:57;3.50;;;0.75;;
6406;SDS011;3236;51.022;6.818;2022-10-16T12:42:33;3.42;;;0.70;;
6406;SDS011;3236;51.022;6.818;2022-10-16T12:45:21;4.57;;;0.90;;
6406;SDS011;3236;51.022;6.818;2022-10-16T12:47:59;1.17;;;0.60;;
6406;SDS011;3236;51.022;6.818;2022-10-16T12:50:32;2.33;;;0.60;;
6406;SDS011;3236;51.022;6.818;2022-10-16T12:53:01;1.95;;;0.80;;
6406;SDS011;3236;51.022;6.818;2022-10-16T12:55:32;0.70;;;0.70;;
6406;SDS011;3236;51.022;6.818;2022-10-16T12:58:20;3.33;;;0.70;;
6406;SDS011;3236;51.022;6.818;2022-10-16T13:01:02;1.75;;;0.77;;
6406;SDS011;3236;51.022;6.818;2022-10-16T13:03:44;1.30;;;1.02;;
6406;SDS011;3236;51.022;6.818;2022-10-16T13:06:27;1.38;;;0.65;;
6406;SDS011;3236;51.022;6.818;2022-10-16T13:09:14;2.63;;;0.60;;
6406;SDS011;3236;51.022;6.818;2022-10-16T13:11:58;4.32;;;0.98;;
6406;SDS011;3236;51.022;6.818;2022-10-16T13:14:47;1.85;;;0.82;;
6406;SDS011;3236;51.022;6.818;2022-10-16T13:17:25;3.00;;;0.80;;
6406;SDS011;3236;51.022;6.818;2022-10-16T13:20:02;3.42;;;0.68;;
6406;SDS011;3236;51.022;6.818;2022-10-16T13:22:40;0.73;;;0.60;;
6406;SDS011;3236;51.022;6.818;2022-10-16T13:25:19;1.83;;;0.70;;
6406;SDS011;3236;51.022;6.818;2022-10-16T13:27:54;4.78;;;0.77;;
6406;SDS011;3236;51.022;6.818;2022-10-16T13:30:34;5.50;;;1.13;;
6406;SDS011;3236;51.022;6.818;2022-10-16T13:33:12;2.05;;;0.77;;
6406;SDS011;3236;51.022;6.818;2022-10-16T13:35:46;2.03;;;0.65;;
6406;SDS011;3236;51.022;6.818;2022-10-16T13:38:17;1.55;;;0.80;;
6406;SDS011;3236;51.022;6.818;2022-10-16T13:40:49;2.50;;;0.60;;
6406;SDS011;3236;51.022;6.818;2022-10-16T13:43:18;1.75;;;0.47;;
6406;SDS011;3236;51.022;6.818;2022-10-16T13:45:59;5.00;;;0.80;;
6406;SDS011;3236;51.022;6.818;2022-10-16T13:48:28;2.45;;;0.68;;
6406;SDS011;3236;51.022;6.818;2022-10-16T13:51:02;9.45;;;6.20;;
6406;SDS011;3236;51.022;6.818;2022-10-16T13:53:32;0.80;;;0.60;;
6406;SDS011;3236;51.022;6.818;2022-10-16T13:56:01;2.92;;;0.77;;
6406;SDS011;3236;51.022;6.818;2022-10-16T13:58:30;2.17;;;0.90;;
6406;SDS011;3236;51.022;6.818;2022-10-16T14:00:59;2.63;;;0.85;;
6406;SDS011;3236;51.022;6.818;2022-10-16T14:03:28;1.55;;;0.60;;
6406;SDS011;3236;51.022;6.818;2022-10-16T14:05:56;1.67;;;0.70;;
6406;SDS011;3236;51.022;6.818;2022-10-16T14:08:26;3.23;;;0.73;;
6406;SDS011;3236;51.022;6.818;2022-10-16T14:10:54;3.83;;;0.85;;
6406;SDS011;3236;51.022;6.818;2022-10-16T14:13:27;0.63;;;0.63;;
6406;SDS011;3236;51.022;6.818;2022-10-16T14:16:02;2.47;;;0.70;;
6406;SDS011;3236;51.022;6.818;2022-10-16T14:18:33;2.58;;;0.70;;
6406;SDS011;3236;51.022;6.818;2022-10-16T14:21:04;3.67;;;0.70;;
6406;SDS011;3236;51.022;6.818;2022-10-16T14:23:34;2.25;;;0.60;;
6406;SDS011;3236;51.022;6.818;2022-10-16T14:26:11;1.15;;;0.70;;
6406;SDS011;3236;51.022;6.818;2022-10-16T14:28:39;2.42;;;0.80;;
6406;SDS011;3236;51.022;6.818;2022-10-16T14:31:23;1.90;;;0.65;;
6406;SDS011;3236;51.022;6.818;2022-10-16T14:33:54;5.72;;;0.80;;
6406;SDS011;3236;51.022;6.818;2022-10-16T14:36:22;1.92;;;0.70;;
6406;SDS011;3236;51.022;6.818;2022-10-16T14:38:53;1.23;;;0.80;;
6406;SDS011;3236;51.022;6.818;2022-10-16T14:41:40;5.65;;;0.73;;
6406;SDS011;3236;51.022;6.818;2022-10-16T14:44:10;3.55;;;0.70;;
6406;SDS011;3236;51.022;6.818;2022-10-16T14:46:39;1.15;;;0.68;;
6406;SDS011;3236;51.022;6.818;2022-10-16T14:49:13;1.73;;;0.60;;
6406;SDS011;3236;51.022;6.818;2022-10-16T14:51:42;3.38;;;0.80;;
6406;SDS011;3236;51.022;6.818;2022-10-16T14:54:10;2.47;;;0.70;;
6406;SDS011;3236;51.022;6.818;2022-10-16T14:56:41;1.30;;;0.80;;
6406;SDS011;3236;51.022;6.818;2022-10-16T14:59:13;1.00;;;0.60;;
6406;SDS011;3236;51.022;6.818;2022-10-16T15:01:45;1.77;;;0.60;;
6406;SDS011;3236;51.022;6.818;2022-10-16T15:04:12;0.52;;;0.50;;
6406;SDS011;3236;51.022;6.818;2022-10-16T15:06:40;1.20;;;0.52;;
6406;SDS011;3236;51.022;6.818;2022-10-16T15:09:07;2.22;;;0.57;;
6406;SDS011;3236;51.022;6.818;2022-10-16T15:11:34;1.92;;;0.80;;
6406;SDS011;3236;51.022;6.818;2022-10-16T15:14:01;0.77;;;0.60;;
6406;SDS011;3236;51.022;6.818;2022-10-16T15:16:29;3.13;;;0.80;;
6406;SDS011;3236;51.022;6.818;2022-10-16T15:18:58;1.38;;;0.60;;
6406;SDS011;3236;51.022;6.818;2022-10-16T15:21:27;1.92;;;0.80;;
6406;SDS011;3236;51.022;6.818;2022-10-16T15:23:55;2.05;;;0.82;;
6406;SDS011;3236;51.022;6.818;2022-10-16T15:26:23;3.83;;;1.00;;
6406;SDS011;3236;51.022;6.818;2022-10-16T15:28:50;4.72;;;1.08;;
6406;SDS011;3236;51.022;6.818;2022-10-16T15:31:17;2.65;;;1.00;;
6406;SDS011;3236;51.022;6.818;2022-10-16T15:33:44;1.65;;;0.75;;
6406;SDS011;3236;51.022;6.818;2022-10-16T15:36:19;3.05;;;1.00;;
6406;SDS011;3236;51.022;6.818;2022-10-16T15:38:51;1.27;;;0.85;;
6406;SDS011;3236;51.022;6.818;2022-10-16T15:41:18;2.17;;;0.98;;
6406;SDS011;3236;51.022;6.818;2022-10-16T15:43:47;2.20;;;1.15;;